sensor_id;sensor_type;location;lat;lon;timestamp;temperature;humidity
69335;SHT31;56477;52.742;15.242;2022-09-09T00:01:11;15.65;99.99
69335;SHT31;56477;52.742;15.242;2022-09-09T00:03:48;15.67;99.99
69335;SHT31;56477;52.742;15.242;2022-09-09T00:06:27;15.69;99.99
69335;SHT31;56477;52.742;15.242;2022-09-09T00:09:11;15.67;99.99
69335;SHT31;56477;52.742;15.242;2022-09-09T00:12:04;15.65;99.99
69335;SHT31;56477;52.742;15.242;2022-09-09T00:14:50;15.61;99.99
69335;SHT31;56477;52.742;15.242;2022-09-09T00:17:34;15.61;99.99
69335;SHT31;56477;52.742;15.242;2022-09-09T00:22:29;15.62;99.99
69335;SHT31;56477;52.742;15.242;2022-09-09T00:28:19;15.61;99.99
69335;SHT31;56477;52.742;15.242;2022-09-09T00:30:46;15.59;99.99
69335;SHT31;56477;52.742;15.242;2022-09-09T00:33:17;15.49;99.99
69335;SHT31;56477;52.742;15.242;2022-09-09T00:35:48;15.54;99.99
69335;SHT31;56477;52.742;15.242;2022-09-09T00:38:24;15.51;99.99
69335;SHT31;56477;52.742;15.242;2022-09-09T00:43:37;15.46;99.99
69335;SHT31;56477;52.742;15.242;2022-09-09T00:46:39;15.41;99.99
69335;SHT31;56477;52.742;15.242;2022-09-09T00:57:03;15.41;99.99
69335;SHT31;56477;52.742;15.242;2022-09-09T00:59:46;15.39;99.99
69335;SHT31;56477;52.742;15.242;2022-09-09T01:05:36;15.32;99.99
69335;SHT31;56477;52.742;15.242;2022-09-09T01:08:13;15.36;99.99
69335;SHT31;56477;52.742;15.242;2022-09-09T01:10:50;15.38;99.99
69335;SHT31;56477;52.742;15.242;2022-09-09T01:15:50;15.41;99.99
69335;SHT31;56477;52.742;15.242;2022-09-09T01:18:22;15.38;99.99
69335;SHT31;56477;52.742;15.242;2022-09-09T01:26:26;15.38;99.99
69335;SHT31;56477;52.742;15.242;2022-09-09T01:28:53;15.35;99.99
69335;SHT31;56477;52.742;15.242;2022-09-09T01:31:33;15.32;99.99
69335;SHT31;56477;52.742;15.242;2022-09-09T01:34:01;15.28;99.99
69335;SHT31;56477;52.742;15.242;2022-09-09T01:36:35;15.24;99.99
69335;SHT31;56477;52.742;15.242;2022-09-09T01:39:03;15.27;99.99
69335;SHT31;56477;52.742;15.242;2022-09-09T01:41:29;15.27;99.99
69335;SHT31;56477;52.742;15.242;2022-09-09T01:43:55;15.24;99.99
69335;SHT31;56477;52.742;15.242;2022-09-09T01:46:22;15.28;99.99
69335;SHT31;56477;52.742;15.242;2022-09-09T01:48:52;15.30;99.99
69335;SHT31;56477;52.742;15.242;2022-09-09T01:51:19;15.31;99.99
69335;SHT31;56477;52.742;15.242;2022-09-09T01:53:46;15.27;99.99
69335;SHT31;56477;52.742;15.242;2022-09-09T02:04:00;15.24;99.99
69335;SHT31;56477;52.742;15.242;2022-09-09T02:06:34;15.24;99.99
69335;SHT31;56477;52.742;15.242;2022-09-09T02:09:03;15.24;99.99
69335;SHT31;56477;52.742;15.242;2022-09-09T02:11:30;15.25;99.99
69335;SHT31;56477;52.742;15.242;2022-09-09T02:14:00;15.20;99.99
69335;SHT31;56477;52.742;15.242;2022-09-09T02:17:01;15.18;99.99
69335;SHT31;56477;52.742;15.242;2022-09-09T02:19:32;15.21;99.99
69335;SHT31;56477;52.742;15.242;2022-09-09T02:22:01;15.20;99.99
69335;SHT31;56477;52.742;15.242;2022-09-09T02:24:30;15.23;99.99
69335;SHT31;56477;52.742;15.242;2022-09-09T02:26:57;15.18;99.99
69335;SHT31;56477;52.742;15.242;2022-09-09T02:29:36;15.18;99.99
69335;SHT31;56477;52.742;15.242;2022-09-09T02:32:08;15.08;99.99
69335;SHT31;56477;52.742;15.242;2022-09-09T02:34:41;15.07;99.99
69335;SHT31;56477;52.742;15.242;2022-09-09T02:37:09;15.10;99.99
69335;SHT31;56477;52.742;15.242;2022-09-09T02:39:36;15.08;99.99
69335;SHT31;56477;52.742;15.242;2022-09-09T02:42:03;15.08;99.99
69335;SHT31;56477;52.742;15.242;2022-09-09T02:44:30;15.07;99.99
69335;SHT31;56477;52.742;15.242;2022-09-09T02:55:23;14.93;99.99
69335;SHT31;56477;52.742;15.242;2022-09-09T02:57:50;14.93;99.99
69335;SHT31;56477;52.742;15.242;2022-09-09T03:00:23;14.93;99.99
69335;SHT31;56477;52.742;15.242;2022-09-09T03:02:50;14.91;99.99
69335;SHT31;56477;52.742;15.242;2022-09-09T03:05:16;14.94;99.99
69335;SHT31;56477;52.742;15.242;2022-09-09T03:07:43;14.93;99.99
69335;SHT31;56477;52.742;15.242;2022-09-09T03:10:08;14.88;99.99
69335;SHT31;56477;52.742;15.242;2022-09-09T03:12:36;14.88;99.99
69335;SHT31;56477;52.742;15.242;2022-09-09T03:15:02;14.87;99.99
69335;SHT31;56477;52.742;15.242;2022-09-09T03:17:28;14.86;99.99
69335;SHT31;56477;52.742;15.242;2022-09-09T03:19:54;14.87;99.99
69335;SHT31;56477;52.742;15.242;2022-09-09T03:22:20;14.84;99.99
69335;SHT31;56477;52.742;15.242;2022-09-09T03:24:46;14.86;99.99
69335;SHT31;56477;52.742;15.242;2022-09-09T03:27:13;14.87;99.99
69335;SHT31;56477;52.742;15.242;2022-09-09T03:29:40;14.87;99.99
69335;SHT31;56477;52.742;15.242;2022-09-09T03:32:06;14.91;99.99
69335;SHT31;56477;52.742;15.242;2022-09-09T03:34:31;14.91;99.99
69335;SHT31;56477;52.742;15.242;2022-09-09T03:36:57;14.91;99.99
69335;SHT31;56477;52.742;15.242;2022-09-09T03:39:23;14.91;99.99
69335;SHT31;56477;52.742;15.242;2022-09-09T03:41:49;14.97;99.99
69335;SHT31;56477;52.742;15.242;2022-09-09T03:44:15;14.94;99.99
69335;SHT31;56477;52.742;15.242;2022-09-09T03:46:41;14.93;99.99
69335;SHT31;56477;52.742;15.242;2022-09-09T03:49:07;14.86;99.99
69335;SHT31;56477;52.742;15.242;2022-09-09T03:51:33;14.84;99.99
69335;SHT31;56477;52.742;15.242;2022-09-09T03:54:02;14.87;99.99
69335;SHT31;56477;52.742;15.242;2022-09-09T03:56:31;14.84;99.99
69335;SHT31;56477;52.742;15.242;2022-09-09T03:58:57;14.86;99.99
69335;SHT31;56477;52.742;15.242;2022-09-09T04:01:23;14.80;99.99
69335;SHT31;56477;52.742;15.242;2022-09-09T04:03:49;14.77;99.99
69335;SHT31;56477;52.742;15.242;2022-09-09T04:06:16;14.80;99.99
69335;SHT31;56477;52.742;15.242;2022-09-09T04:08:43;14.80;99.99
69335;SHT31;56477;52.742;15.242;2022-09-09T04:11:10;14.81;99.99
69335;SHT31;56477;52.742;15.242;2022-09-09T04:13:37;14.79;99.99
69335;SHT31;56477;52.742;15.242;2022-09-09T04:16:04;14.76;99.99
69335;SHT31;56477;52.742;15.242;2022-09-09T04:18:31;14.77;99.99
69335;SHT31;56477;52.742;15.242;2022-09-09T04:20:58;14.79;99.99
69335;SHT31;56477;52.742;15.242;2022-09-09T04:23:27;14.80;99.99
69335;SHT31;56477;52.742;15.242;2022-09-09T04:25:57;14.76;99.99
69335;SHT31;56477;52.742;15.242;2022-09-09T04:28:26;14.76;99.99
69335;SHT31;56477;52.742;15.242;2022-09-09T04:30:53;14.75;99.99
69335;SHT31;56477;52.742;15.242;2022-09-09T04:33:19;14.79;99.99
69335;SHT31;56477;52.742;15.242;2022-09-09T04:35:47;14.75;99.99
69335;SHT31;56477;52.742;15.242;2022-09-09T04:38:13;14.79;99.99
69335;SHT31;56477;52.742;15.242;2022-09-09T04:40:42;14.77;99.99
69335;SHT31;56477;52.742;15.242;2022-09-09T04:43:09;14.79;99.99
69335;SHT31;56477;52.742;15.242;2022-09-09T04:45:35;14.77;99.99
69335;SHT31;56477;52.742;15.242;2022-09-09T04:48:01;14.73;99.99
69335;SHT31;56477;52.742;15.242;2022-09-09T04:50:28;14.72;99.99
69335;SHT31;56477;52.742;15.242;2022-09-09T04:52:54;14.63;99.99
69335;SHT31;56477;52.742;15.242;2022-09-09T04:55:20;14.65;99.99
69335;SHT31;56477;52.742;15.242;2022-09-09T04:57:46;14.62;99.99
69335;SHT31;56477;52.742;15.242;2022-09-09T05:00:12;14.57;99.99
69335;SHT31;56477;52.742;15.242;2022-09-09T05:02:39;14.53;99.99
69335;SHT31;56477;52.742;15.242;2022-09-09T05:05:08;14.46;99.99
69335;SHT31;56477;52.742;15.242;2022-09-09T05:07:34;14.40;99.99
69335;SHT31;56477;52.742;15.242;2022-09-09T05:10:00;14.33;99.99
69335;SHT31;56477;52.742;15.242;2022-09-09T05:12:26;14.36;99.99
69335;SHT31;56477;52.742;15.242;2022-09-09T05:14:52;14.35;99.99
69335;SHT31;56477;52.742;15.242;2022-09-09T05:17:18;14.33;99.99
69335;SHT31;56477;52.742;15.242;2022-09-09T05:19:44;14.35;99.99
69335;SHT31;56477;52.742;15.242;2022-09-09T05:22:10;14.29;99.99
69335;SHT31;56477;52.742;15.242;2022-09-09T05:24:40;14.29;99.96
69335;SHT31;56477;52.742;15.242;2022-09-09T05:27:07;14.29;99.86
69335;SHT31;56477;52.742;15.242;2022-09-09T05:29:33;14.33;99.93
69335;SHT31;56477;52.742;15.242;2022-09-09T05:32:01;14.38;99.86
69335;SHT31;56477;52.742;15.242;2022-09-09T05:34:28;14.36;99.86
69335;SHT31;56477;52.742;15.242;2022-09-09T05:36:56;14.42;99.84
69335;SHT31;56477;52.742;15.242;2022-09-09T05:39:22;14.38;99.66
69335;SHT31;56477;52.742;15.242;2022-09-09T05:41:48;14.42;99.66
69335;SHT31;56477;52.742;15.242;2022-09-09T05:44:13;14.29;99.40
69335;SHT31;56477;52.742;15.242;2022-09-09T05:46:39;14.30;99.25
69335;SHT31;56477;52.742;15.242;2022-09-09T05:49:05;14.35;99.19
69335;SHT31;56477;52.742;15.242;2022-09-09T05:51:32;14.40;99.11
69335;SHT31;56477;52.742;15.242;2022-09-09T05:53:58;14.42;99.12
69335;SHT31;56477;52.742;15.242;2022-09-09T05:56:28;14.50;98.94
69335;SHT31;56477;52.742;15.242;2022-09-09T05:58:55;14.49;98.77
69335;SHT31;56477;52.742;15.242;2022-09-09T06:01:24;14.70;98.57
69335;SHT31;56477;52.742;15.242;2022-09-09T06:03:51;14.66;97.75
69335;SHT31;56477;52.742;15.242;2022-09-09T06:06:20;14.67;97.85
69335;SHT31;56477;52.742;15.242;2022-09-09T06:08:47;14.66;97.85
69335;SHT31;56477;52.742;15.242;2022-09-09T06:11:20;14.70;97.91
69335;SHT31;56477;52.742;15.242;2022-09-09T06:13:47;14.66;97.52
69335;SHT31;56477;52.742;15.242;2022-09-09T06:16:15;14.65;97.49
69335;SHT31;56477;52.742;15.242;2022-09-09T06:18:42;14.57;97.52
69335;SHT31;56477;52.742;15.242;2022-09-09T06:21:15;14.72;97.50
69335;SHT31;56477;52.742;15.242;2022-09-09T06:23:41;14.73;97.12
69335;SHT31;56477;52.742;15.242;2022-09-09T06:26:11;14.72;97.09
69335;SHT31;56477;52.742;15.242;2022-09-09T06:28:38;14.76;96.76
69335;SHT31;56477;52.742;15.242;2022-09-09T06:31:06;14.86;96.59
69335;SHT31;56477;52.742;15.242;2022-09-09T06:33:34;15.01;96.66
69335;SHT31;56477;52.742;15.242;2022-09-09T06:36:02;15.32;96.01
69335;SHT31;56477;52.742;15.242;2022-09-09T06:38:29;15.63;94.73
69335;SHT31;56477;52.742;15.242;2022-09-09T06:40:57;15.48;94.50
69335;SHT31;56477;52.742;15.242;2022-09-09T06:43:27;15.39;94.48
69335;SHT31;56477;52.742;15.242;2022-09-09T06:46:20;15.72;94.56
69335;SHT31;56477;52.742;15.242;2022-09-09T06:48:47;16.00;93.97
69335;SHT31;56477;52.742;15.242;2022-09-09T06:51:16;16.13;92.47
69335;SHT31;56477;52.742;15.242;2022-09-09T06:53:44;16.20;92.48
69335;SHT31;56477;52.742;15.242;2022-09-09T06:58:37;17.61;87.91
69335;SHT31;56477;52.742;15.242;2022-09-09T07:01:07;18.12;85.35
69335;SHT31;56477;52.742;15.242;2022-09-09T07:03:33;18.59;83.19
69335;SHT31;56477;52.742;15.242;2022-09-09T07:05:59;19.29;81.15
69335;SHT31;56477;52.742;15.242;2022-09-09T07:08:25;19.94;79.08
69335;SHT31;56477;52.742;15.242;2022-09-09T07:10:52;19.97;79.03
69335;SHT31;56477;52.742;15.242;2022-09-09T07:13:24;20.27;76.73
69335;SHT31;56477;52.742;15.242;2022-09-09T07:15:51;20.96;75.20
69335;SHT31;56477;52.742;15.242;2022-09-09T07:18:18;20.93;73.63
69335;SHT31;56477;52.742;15.242;2022-09-09T07:20:53;21.11;74.99
69335;SHT31;56477;52.742;15.242;2022-09-09T07:23:19;21.58;70.73
69335;SHT31;56477;52.742;15.242;2022-09-09T07:25:45;22.17;68.45
69335;SHT31;56477;52.742;15.242;2022-09-09T07:28:11;22.13;68.24
69335;SHT31;56477;52.742;15.242;2022-09-09T07:30:37;22.26;68.73
69335;SHT31;56477;52.742;15.242;2022-09-09T07:33:03;22.22;68.90
69335;SHT31;56477;52.742;15.242;2022-09-09T07:35:29;22.47;67.02
69335;SHT31;56477;52.742;15.242;2022-09-09T07:37:55;22.90;66.54
69335;SHT31;56477;52.742;15.242;2022-09-09T07:40:21;22.44;66.06
69335;SHT31;56477;52.742;15.242;2022-09-09T07:42:47;22.17;66.59
69335;SHT31;56477;52.742;15.242;2022-09-09T07:45:13;21.88;69.28
69335;SHT31;56477;52.742;15.242;2022-09-09T07:47:40;22.16;69.26
69335;SHT31;56477;52.742;15.242;2022-09-09T07:50:09;22.42;67.67
69335;SHT31;56477;52.742;15.242;2022-09-09T07:52:35;22.32;69.21
69335;SHT31;56477;52.742;15.242;2022-09-09T07:55:01;22.04;69.37
69335;SHT31;56477;52.742;15.242;2022-09-09T07:57:30;22.06;69.75
69335;SHT31;56477;52.742;15.242;2022-09-09T07:59:57;22.88;67.70
69335;SHT31;56477;52.742;15.242;2022-09-09T08:02:23;23.53;66.65
69335;SHT31;56477;52.742;15.242;2022-09-09T08:04:49;22.83;66.17
69335;SHT31;56477;52.742;15.242;2022-09-09T08:07:15;23.22;66.07
69335;SHT31;56477;52.742;15.242;2022-09-09T08:09:41;23.07;65.76
69335;SHT31;56477;52.742;15.242;2022-09-09T08:12:07;23.65;66.53
69335;SHT31;56477;52.742;15.242;2022-09-09T08:14:34;24.71;64.33
69335;SHT31;56477;52.742;15.242;2022-09-09T08:17:00;25.41;58.59
69335;SHT31;56477;52.742;15.242;2022-09-09T08:19:26;25.23;59.27
69335;SHT31;56477;52.742;15.242;2022-09-09T08:21:55;25.23;60.07
69335;SHT31;56477;52.742;15.242;2022-09-09T08:24:21;24.80;61.98
69335;SHT31;56477;52.742;15.242;2022-09-09T08:26:49;25.30;59.62
69335;SHT31;56477;52.742;15.242;2022-09-09T08:29:15;24.18;62.51
69335;SHT31;56477;52.742;15.242;2022-09-09T08:31:44;23.81;63.75
69335;SHT31;56477;52.742;15.242;2022-09-09T08:34:11;23.87;63.76
69335;SHT31;56477;52.742;15.242;2022-09-09T08:36:42;24.16;63.32
69335;SHT31;56477;52.742;15.242;2022-09-09T08:39:10;24.32;63.56
69335;SHT31;56477;52.742;15.242;2022-09-09T08:47:21;24.88;60.01
69335;SHT31;56477;52.742;15.242;2022-09-09T08:50:01;25.85;58.39
69335;SHT31;56477;52.742;15.242;2022-09-09T08:52:37;25.41;60.47
69335;SHT31;56477;52.742;15.242;2022-09-09T08:55:20;25.02;60.97
69335;SHT31;56477;52.742;15.242;2022-09-09T08:57:52;24.68;61.19
69335;SHT31;56477;52.742;15.242;2022-09-09T09:00:19;24.79;62.41
69335;SHT31;56477;52.742;15.242;2022-09-09T09:05:35;25.34;58.88
69335;SHT31;56477;52.742;15.242;2022-09-09T09:10:56;25.12;61.38
69335;SHT31;56477;52.742;15.242;2022-09-09T09:18:41;24.21;62.43
69335;SHT31;56477;52.742;15.242;2022-09-09T09:21:21;24.13;62.91
69335;SHT31;56477;52.742;15.242;2022-09-09T09:23:59;23.94;64.12
69335;SHT31;56477;52.742;15.242;2022-09-09T09:26:35;24.14;63.00
69335;SHT31;56477;52.742;15.242;2022-09-09T09:29:14;24.41;62.38
69335;SHT31;56477;52.742;15.242;2022-09-09T09:32:00;24.28;62.42
69335;SHT31;56477;52.742;15.242;2022-09-09T09:34:28;23.08;66.60
69335;SHT31;56477;52.742;15.242;2022-09-09T09:37:01;22.97;66.45
69335;SHT31;56477;52.742;15.242;2022-09-09T09:39:32;23.02;67.30
69335;SHT31;56477;52.742;15.242;2022-09-09T09:42:11;23.52;65.41
69335;SHT31;56477;52.742;15.242;2022-09-09T09:44:40;24.04;63.34
69335;SHT31;56477;52.742;15.242;2022-09-09T09:47:17;23.52;61.21
69335;SHT31;56477;52.742;15.242;2022-09-09T09:49:57;22.87;61.48
69335;SHT31;56477;52.742;15.242;2022-09-09T09:52:26;22.33;64.22
69335;SHT31;56477;52.742;15.242;2022-09-09T09:54:55;21.94;67.03
69335;SHT31;56477;52.742;15.242;2022-09-09T09:57:25;21.98;65.52
69335;SHT31;56477;52.742;15.242;2022-09-09T10:02:39;21.53;71.52
69335;SHT31;56477;52.742;15.242;2022-09-09T10:07:40;21.77;68.43
69335;SHT31;56477;52.742;15.242;2022-09-09T10:10:11;21.73;68.53
69335;SHT31;56477;52.742;15.242;2022-09-09T10:13:10;21.30;67.93
69335;SHT31;56477;52.742;15.242;2022-09-09T10:18:59;21.64;67.86
69335;SHT31;56477;52.742;15.242;2022-09-09T10:37:15;22.04;65.66
69335;SHT31;56477;52.742;15.242;2022-09-09T10:39:42;23.07;63.99
69335;SHT31;56477;52.742;15.242;2022-09-09T10:42:09;23.32;62.39
69335;SHT31;56477;52.742;15.242;2022-09-09T10:50:15;25.03;56.45
69335;SHT31;56477;52.742;15.242;2022-09-09T10:53:11;24.35;59.24
69335;SHT31;56477;52.742;15.242;2022-09-09T10:55:44;25.30;56.88
69335;SHT31;56477;52.742;15.242;2022-09-09T10:58:18;25.28;56.75
69335;SHT31;56477;52.742;15.242;2022-09-09T11:00:57;25.37;55.84
69335;SHT31;56477;52.742;15.242;2022-09-09T11:03:29;25.10;54.72
69335;SHT31;56477;52.742;15.242;2022-09-09T11:08:26;25.09;54.80
69335;SHT31;56477;52.742;15.242;2022-09-09T11:11:22;25.22;54.02
69335;SHT31;56477;52.742;15.242;2022-09-09T11:19:35;26.19;51.87
69335;SHT31;56477;52.742;15.242;2022-09-09T11:24:37;25.57;53.34
69335;SHT31;56477;52.742;15.242;2022-09-09T11:32:51;27.24;48.99
69335;SHT31;56477;52.742;15.242;2022-09-09T11:40:30;27.50;46.66
69335;SHT31;56477;52.742;15.242;2022-09-09T11:43:05;25.47;52.35
69335;SHT31;56477;52.742;15.242;2022-09-09T11:45:35;26.03;51.70
69335;SHT31;56477;52.742;15.242;2022-09-09T11:48:02;26.86;49.15
69335;SHT31;56477;52.742;15.242;2022-09-09T11:50:34;27.12;48.72
69335;SHT31;56477;52.742;15.242;2022-09-09T11:53:15;26.60;49.98
69335;SHT31;56477;52.742;15.242;2022-09-09T11:55:43;26.53;48.80
69335;SHT31;56477;52.742;15.242;2022-09-09T12:00:38;26.57;48.56
69335;SHT31;56477;52.742;15.242;2022-09-09T12:03:08;26.91;48.00
69335;SHT31;56477;52.742;15.242;2022-09-09T12:05:53;26.84;47.87
69335;SHT31;56477;52.742;15.242;2022-09-09T12:08:26;26.80;49.70
69335;SHT31;56477;52.742;15.242;2022-09-09T12:10:55;26.36;49.72
69335;SHT31;56477;52.742;15.242;2022-09-09T12:13:24;26.22;49.53
69335;SHT31;56477;52.742;15.242;2022-09-09T12:26:40;26.91;47.45
69335;SHT31;56477;52.742;15.242;2022-09-09T12:29:29;25.63;49.04
69335;SHT31;56477;52.742;15.242;2022-09-09T12:32:09;25.61;50.41
69335;SHT31;56477;52.742;15.242;2022-09-09T12:34:52;26.65;48.35
69335;SHT31;56477;52.742;15.242;2022-09-09T12:37:37;27.38;46.65
69335;SHT31;56477;52.742;15.242;2022-09-09T12:42:31;26.05;47.29
69335;SHT31;56477;52.742;15.242;2022-09-09T12:45:03;26.12;48.65
69335;SHT31;56477;52.742;15.242;2022-09-09T12:47:37;25.95;48.19
69335;SHT31;56477;52.742;15.242;2022-09-09T12:50:25;25.36;50.17
69335;SHT31;56477;52.742;15.242;2022-09-09T12:52:54;25.94;48.79
69335;SHT31;56477;52.742;15.242;2022-09-09T12:55:25;27.38;46.24
69335;SHT31;56477;52.742;15.242;2022-09-09T12:57:53;27.10;45.99
69335;SHT31;56477;52.742;15.242;2022-09-09T13:00:22;26.88;46.68
69335;SHT31;56477;52.742;15.242;2022-09-09T13:05:26;26.19;49.55
69335;SHT31;56477;52.742;15.242;2022-09-09T13:08:04;25.70;50.16
69335;SHT31;56477;52.742;15.242;2022-09-09T13:10:33;25.36;50.96
69335;SHT31;56477;52.742;15.242;2022-09-09T13:13:01;26.50;48.33
69335;SHT31;56477;52.742;15.242;2022-09-09T13:15:28;25.68;48.75
69335;SHT31;56477;52.742;15.242;2022-09-09T13:18:02;26.46;48.37
69335;SHT31;56477;52.742;15.242;2022-09-09T13:20:30;26.88;47.54
69335;SHT31;56477;52.742;15.242;2022-09-09T13:22:56;27.34;48.42
69335;SHT31;56477;52.742;15.242;2022-09-09T13:25:32;27.02;49.06
69335;SHT31;56477;52.742;15.242;2022-09-09T13:28:05;26.40;47.54
69335;SHT31;56477;52.742;15.242;2022-09-09T13:30:36;26.60;47.19
69335;SHT31;56477;52.742;15.242;2022-09-09T13:33:22;27.56;47.06
69335;SHT31;56477;52.742;15.242;2022-09-09T13:36:00;27.67;44.40
69335;SHT31;56477;52.742;15.242;2022-09-09T13:38:30;26.84;46.88
69335;SHT31;56477;52.742;15.242;2022-09-09T13:43:27;27.82;45.55
69335;SHT31;56477;52.742;15.242;2022-09-09T13:46:00;27.96;45.62
69335;SHT31;56477;52.742;15.242;2022-09-09T13:48:27;27.66;45.54
69335;SHT31;56477;52.742;15.242;2022-09-09T13:51:02;28.40;44.46
69335;SHT31;56477;52.742;15.242;2022-09-09T13:53:30;28.18;44.79
69335;SHT31;56477;52.742;15.242;2022-09-09T13:55:57;28.58;43.66
69335;SHT31;56477;52.742;15.242;2022-09-09T13:58:24;27.83;44.08
69335;SHT31;56477;52.742;15.242;2022-09-09T14:00:52;28.61;43.25
69335;SHT31;56477;52.742;15.242;2022-09-09T14:03:19;27.98;44.47
69335;SHT31;56477;52.742;15.242;2022-09-09T14:05:46;26.94;46.05
69335;SHT31;56477;52.742;15.242;2022-09-09T14:08:20;27.19;46.84
69335;SHT31;56477;52.742;15.242;2022-09-09T14:10:47;27.97;43.98
69335;SHT31;56477;52.742;15.242;2022-09-09T14:13:13;27.14;46.20
69335;SHT31;56477;52.742;15.242;2022-09-09T14:15:40;26.98;46.91
69335;SHT31;56477;52.742;15.242;2022-09-09T14:18:08;27.98;44.50
69335;SHT31;56477;52.742;15.242;2022-09-09T14:20:35;28.06;43.68
69335;SHT31;56477;52.742;15.242;2022-09-09T14:23:01;26.64;47.03
69335;SHT31;56477;52.742;15.242;2022-09-09T14:25:26;26.67;47.48
69335;SHT31;56477;52.742;15.242;2022-09-09T14:27:53;28.07;44.57
69335;SHT31;56477;52.742;15.242;2022-09-09T14:30:18;27.83;43.91
69335;SHT31;56477;52.742;15.242;2022-09-09T14:32:44;27.05;46.65
69335;SHT31;56477;52.742;15.242;2022-09-09T14:35:10;25.96;49.18
69335;SHT31;56477;52.742;15.242;2022-09-09T14:37:37;25.43;50.26
69335;SHT31;56477;52.742;15.242;2022-09-09T14:40:04;24.62;52.06
69335;SHT31;56477;52.742;15.242;2022-09-09T14:42:31;24.32;52.69
69335;SHT31;56477;52.742;15.242;2022-09-09T14:44:57;23.92;53.88
69335;SHT31;56477;52.742;15.242;2022-09-09T14:47:22;23.73;54.64
69335;SHT31;56477;52.742;15.242;2022-09-09T14:49:49;23.62;53.95
69335;SHT31;56477;52.742;15.242;2022-09-09T14:52:15;23.42;54.70
69335;SHT31;56477;52.742;15.242;2022-09-09T14:54:42;23.21;55.20
69335;SHT31;56477;52.742;15.242;2022-09-09T14:57:08;22.95;56.38
69335;SHT31;56477;52.742;15.242;2022-09-09T14:59:33;22.87;56.87
69335;SHT31;56477;52.742;15.242;2022-09-09T15:02:00;22.75;57.99
69335;SHT31;56477;52.742;15.242;2022-09-09T15:04:29;22.50;59.67
69335;SHT31;56477;52.742;15.242;2022-09-09T15:06:55;22.37;60.53
69335;SHT31;56477;52.742;15.242;2022-09-09T15:09:21;22.19;61.59
69335;SHT31;56477;52.742;15.242;2022-09-09T15:11:48;22.04;62.09
69335;SHT31;56477;52.742;15.242;2022-09-09T15:14:14;21.94;62.24
69335;SHT31;56477;52.742;15.242;2022-09-09T15:16:40;21.85;62.72
69335;SHT31;56477;52.742;15.242;2022-09-09T15:19:07;21.75;64.12
69335;SHT31;56477;52.742;15.242;2022-09-09T15:21:36;21.57;65.20
69335;SHT31;56477;52.742;15.242;2022-09-09T15:24:02;21.41;66.65
69335;SHT31;56477;52.742;15.242;2022-09-09T15:26:30;21.29;69.34
69335;SHT31;56477;52.742;15.242;2022-09-09T15:28:56;21.22;66.87
69335;SHT31;56477;52.742;15.242;2022-09-09T15:31:29;21.23;71.03
69335;SHT31;56477;52.742;15.242;2022-09-09T15:34:01;21.38;75.70
69335;SHT31;56477;52.742;15.242;2022-09-09T15:38:59;22.74;71.46
69335;SHT31;56477;52.742;15.242;2022-09-09T15:41:27;23.81;68.48
69335;SHT31;56477;52.742;15.242;2022-09-09T15:43:54;24.59;67.02
69335;SHT31;56477;52.742;15.242;2022-09-09T15:51:51;24.11;64.85
69335;SHT31;56477;52.742;15.242;2022-09-09T15:54:18;23.55;64.77
69335;SHT31;56477;52.742;15.242;2022-09-09T15:56:47;22.75;61.95
69335;SHT31;56477;52.742;15.242;2022-09-09T15:59:15;22.35;64.63
69335;SHT31;56477;52.742;15.242;2022-09-09T16:01:41;22.30;65.78
69335;SHT31;56477;52.742;15.242;2022-09-09T16:04:09;22.04;68.83
69335;SHT31;56477;52.742;15.242;2022-09-09T16:06:36;21.86;70.46
69335;SHT31;56477;52.742;15.242;2022-09-09T16:09:04;21.68;71.83
69335;SHT31;56477;52.742;15.242;2022-09-09T16:11:32;21.57;73.09
69335;SHT31;56477;52.742;15.242;2022-09-09T16:13:59;21.34;73.84
69335;SHT31;56477;52.742;15.242;2022-09-09T16:16:27;21.17;74.01
69335;SHT31;56477;52.742;15.242;2022-09-09T16:18:58;20.95;73.57
69335;SHT31;56477;52.742;15.242;2022-09-09T16:21:27;20.76;74.33
69335;SHT31;56477;52.742;15.242;2022-09-09T16:23:56;20.64;74.79
69335;SHT31;56477;52.742;15.242;2022-09-09T16:26:22;20.48;74.65
69335;SHT31;56477;52.742;15.242;2022-09-09T16:28:49;20.34;74.77
69335;SHT31;56477;52.742;15.242;2022-09-09T16:31:18;20.31;76.11
69335;SHT31;56477;52.742;15.242;2022-09-09T16:33:44;20.27;76.57
69335;SHT31;56477;52.742;15.242;2022-09-09T16:36:15;20.17;76.78
69335;SHT31;56477;52.742;15.242;2022-09-09T16:38:42;20.13;77.76
69335;SHT31;56477;52.742;15.242;2022-09-09T16:41:10;20.09;77.90
69335;SHT31;56477;52.742;15.242;2022-09-09T16:43:36;20.03;77.55
69335;SHT31;56477;52.742;15.242;2022-09-09T16:46:11;19.97;76.79
69335;SHT31;56477;52.742;15.242;2022-09-09T16:48:38;19.96;76.33
69335;SHT31;56477;52.742;15.242;2022-09-09T16:51:07;19.90;76.17
69335;SHT31;56477;52.742;15.242;2022-09-09T16:53:36;19.90;77.15
69335;SHT31;56477;52.742;15.242;2022-09-09T16:56:06;19.86;76.93
69335;SHT31;56477;52.742;15.242;2022-09-09T16:58:32;19.83;77.22
69335;SHT31;56477;52.742;15.242;2022-09-09T17:01:00;19.84;76.35
69335;SHT31;56477;52.742;15.242;2022-09-09T17:03:27;19.89;74.66
69335;SHT31;56477;52.742;15.242;2022-09-09T17:05:53;19.92;73.46
69335;SHT31;56477;52.742;15.242;2022-09-09T17:08:19;19.92;73.37
69335;SHT31;56477;52.742;15.242;2022-09-09T17:10:45;19.94;75.70
69335;SHT31;56477;52.742;15.242;2022-09-09T17:13:12;20.00;71.14
69335;SHT31;56477;52.742;15.242;2022-09-09T17:15:40;20.04;74.78
69335;SHT31;56477;52.742;15.242;2022-09-09T17:18:10;20.01;72.85
69335;SHT31;56477;52.742;15.242;2022-09-09T17:20:40;20.01;74.08
69335;SHT31;56477;52.742;15.242;2022-09-09T17:23:08;20.01;74.83
69335;SHT31;56477;52.742;15.242;2022-09-09T17:25:35;20.00;76.18
69335;SHT31;56477;52.742;15.242;2022-09-09T17:28:02;19.93;74.12
69335;SHT31;56477;52.742;15.242;2022-09-09T17:30:35;19.97;73.70
69335;SHT31;56477;52.742;15.242;2022-09-09T17:33:03;20.01;72.41
69335;SHT31;56477;52.742;15.242;2022-09-09T17:35:30;19.97;74.06
69335;SHT31;56477;52.742;15.242;2022-09-09T17:37:56;19.94;72.96
69335;SHT31;56477;52.742;15.242;2022-09-09T17:40:23;19.94;72.09
69335;SHT31;56477;52.742;15.242;2022-09-09T17:42:49;19.93;72.18
69335;SHT31;56477;52.742;15.242;2022-09-09T17:45:15;19.90;71.83
69335;SHT31;56477;52.742;15.242;2022-09-09T17:47:42;19.93;72.47
69335;SHT31;56477;52.742;15.242;2022-09-09T17:50:09;19.92;71.11
69335;SHT31;56477;52.742;15.242;2022-09-09T17:52:38;19.98;70.84